Flight Track Log - Related Links

Times and Time Zones

All times are in EDT time to prevent confusion due to time zone crossing. See the C-GDSJ flight status page for this flight to view local times or setup timezone preferences in your user account.

Time Position Orientation Groundspeed Altitude Reporting Facility
EDT Latitude Longitude Course Direction KTS MPH feet Rate Location/Type
Mon 02:22:08 PM 46.4667 -84.5000 90° East 70 81 800  Level Toronto Center
Mon 02:23:08 PM 46.4667 -84.4667 90° East 90 104 1,600 667 Climbing Toronto Center
Mon 02:25:08 PM 46.4333 -84.4000 110° East 110 127 2,800 567 Climbing Toronto Center
Mon 02:26:08 PM 46.4167 -84.3500 116° Southeast 110 127 3,300 500 Climbing Toronto Center
Mon 02:27:08 PM 46.4167 -84.3000 90° East 120 138 3,800 500 Climbing Toronto Center
Mon 02:28:08 PM 46.4000 -84.2833 145° Southeast 120 138 4,300 500 Climbing Toronto Center
Mon 02:30:08 PM 46.3833 -84.1833 102° East 120 138 5,300 500 Climbing Toronto Center
Mon 02:31:08 PM 46.3667 -84.1333 116° Southeast 120 138 5,800 500 Climbing Toronto Center
Mon 02:33:08 PM 46.3500 -84.0333 104° East 120 138 6,800 300 Climbing Toronto Center
Mon 02:35:08 PM 46.3167 -83.9333 116° Southeast 150 173 7,000 67 Climbing Toronto Center
Mon 02:36:08 PM 46.2833 -83.8833 134° Southeast 150 173 7,000  Level Toronto Center
Mon 02:38:08 PM 46.2667 -83.7500 100° East 160 184 7,000  Level Toronto Center
Mon 02:39:08 PM 46.2500 -83.7000 116° Southeast 160 184 7,000  Level Toronto Center
Mon 02:41:08 PM 46.2167 -83.5833 112° Southeast 160 184 7,000  Level Toronto Center
Mon 02:42:08 PM 46.2000 -83.5333 116° Southeast 160 184 7,000  Level Toronto Center
Mon 02:43:08 PM 46.1833 -83.4667 110° East 160 184 7,000  Level Toronto Center
Mon 02:44:09 PM 46.1667 -83.4167 116° Southeast 160 184 7,000  Level Toronto Center
Mon 02:45:08 PM 46.1500 -83.3333 106° East 150 173 7,000  Level Toronto Center
Mon 02:46:08 PM 46.1333 -83.2833 116° Southeast 160 184 7,000  Level Toronto Center
Mon 02:47:08 PM 46.1167 -83.2333 116° Southeast 160 184 7,000  Level Toronto Center
Mon 02:48:08 PM 46.1000 -83.1667 110° East 160 184 7,000  Level Toronto Center
Mon 02:49:08 PM 46.0833 -83.1167 116° Southeast 160 184 7,000  Level Toronto Center
Mon 02:50:08 PM 46.0667 -83.0667 116° Southeast 160 184 7,000  Level Toronto Center
Mon 02:51:08 PM 46.0500 -83.0000 110° East 150 173 7,000  Level Toronto Center
Mon 02:52:08 PM 46.0333 -82.9500 116° Southeast 150 173 7,000  Level Toronto Center
Mon 02:53:08 PM 46.0167 -82.9000 116° Southeast 150 173 7,000  Level Toronto Center
Mon 02:54:08 PM 45.9833 -82.8500 134° Southeast 150 173 7,000  Level Toronto Center
Mon 02:55:08 PM 45.9667 -82.7833 110° East 150 173 7,000  Level Toronto Center
Mon 02:56:08 PM 45.9500 -82.7333 116° Southeast 150 173 7,000  Level Toronto Center
Mon 02:57:08 PM 45.9500 -82.6833 90° East 150 173 7,000  Level Toronto Center
Mon 02:58:08 PM 45.9333 -82.6000 106° East 160 184 7,000  Level Toronto Center
Mon 02:59:08 PM 45.9167 -82.5500 116° Southeast 160 184 7,000  Level Toronto Center
Mon 03:00:08 PM 45.9000 -82.4833 110° East 160 184 7,000  Level Toronto Center
Mon 03:01:08 PM 45.8833 -82.4333 116° Southeast 150 173 7,000  Level Toronto Center
Mon 03:02:08 PM 45.8667 -82.3833 116° Southeast 150 173 7,000  Level Toronto Center
Mon 03:03:08 PM 45.8500 -82.3333 116° Southeast 150 173 7,000  Level Toronto Center
Mon 03:05:08 PM 45.8167 -82.2167 112° Southeast 150 173 7,000  Level Toronto Center
Mon 03:06:08 PM 45.8000 -82.1667 116° Southeast 150 173 7,000  Level Toronto Center
Mon 03:07:08 PM 45.7833 -82.1000 110° East 150 173 7,000  Level Toronto Center
Mon 03:08:08 PM 45.7500 -82.0500 134° Southeast 140 161 7,000 33 Level Toronto Center
Mon 03:10:08 PM 45.6833 -82.0000 152° Southeast 140 161 7,100 33 Climbing Toronto Center
Mon 03:11:08 PM 45.6667 -81.9500 115° Southeast 140 161 7,100  Level Toronto Center
Mon 03:12:08 PM 45.6333 -81.9167 145° Southeast 140 161 7,100  Level Toronto Center
Mon 03:14:08 PM 45.5667 -81.8667 152° Southeast 140 161 7,100  Level Toronto Center
Mon 03:15:08 PM 45.5333 -81.8167 134° Southeast 160 184 7,100 -50 Level Toronto Center
Mon 03:16:08 PM 45.5000 -81.8000 161° South 140 161 7,000 -50 Descending Toronto Center
Mon 03:17:08 PM 45.4667 -81.7667 145° Southeast 140 161 7,000  Level Toronto Center
Mon 03:18:08 PM 45.4333 -81.7167 134° Southeast 140 161 7,000  Level Toronto Center
Mon 03:19:08 PM 45.4000 -81.7000 161° South 140 161 7,000 50 Level Toronto Center
Mon 03:20:08 PM 45.3667 -81.6667 145° Southeast 150 173 7,100 50 Climbing Toronto Center
Mon 03:21:08 PM 45.3333 -81.6500 161° South 150 173 7,100  Level Toronto Center
Mon 03:22:08 PM 45.3000 -81.6167 145° Southeast 140 161 7,100  Level Toronto Center
Mon 03:24:08 PM 45.2167 -81.5500 151° Southeast 150 173 7,100  Level Toronto Center
Mon 03:25:08 PM 45.1833 -81.5167 145° Southeast 150 173 7,100  Level Toronto Center
Mon 03:26:08 PM 45.1500 -81.4833 145° Southeast 150 173 7,100  Level Toronto Center
Mon 03:27:08 PM 45.1167 -81.4500 145° Southeast 150 173 7,100  Level Toronto Center
Mon 03:29:08 PM 45.0500 -81.3833 145° Southeast 150 173 7,100  Level Toronto Center
Mon 03:30:08 PM 45.0167 -81.3500 145° Southeast 150 173 7,100  Level Toronto Center
Mon 03:31:08 PM 44.9833 -81.3333 161° South 140 161 7,100  Level Toronto Center
Mon 03:32:08 PM 44.9500 -81.3000 145° Southeast 140 161 7,100  Level Toronto Center
Mon 03:33:08 PM 44.9167 -81.2500 133° Southeast 150 173 7,100  Level Toronto Center
Mon 03:34:08 PM 44.8833 -81.2333 160° South 150 173 7,100 -85 Level Toronto Center
Mon 03:56:46 PM 44.3000 -80.3833 110° East 140 161 5,100 -85 Descending Toronto Center
Mon 03:57:00 PM 44.2515 -80.3198 131° Southeast  Level FlightAware Approximate
Mon 03:57:46 PM 44.2667 -80.3500 144° Southeast 140 161 5,100  Level Toronto Center
Mon 03:59:46 PM 44.2167 -80.2667 133° Southeast 130 150 5,000 -33 Descending Toronto Center
Mon 04:00:00 PM 44.1722 -80.1945 131° Southeast  Level FlightAware Approximate
Mon 04:00:46 PM 44.2000 -80.2333 125° Southeast 130 150 5,000  Level Toronto Center
Mon 04:01:00 PM 44.1457 -80.1528 131° Southeast  Level FlightAware Approximate
Mon 04:02:00 PM 44.1260 -80.1056 110° East  Level FlightAware Approximate
Mon 04:02:46 PM 44.1667 -80.1167 112° Southeast 130 150 5,000  Level Toronto Center
Mon 04:03:46 PM 44.1500 -80.0667 115° Southeast 140 161 5,000  Level Toronto Center
Mon 04:04:46 PM 44.1333 -80.0333 125° Southeast 130 150 5,000 -200 Level Toronto Center
Mon 04:05:46 PM 44.1167 -79.9833 115° Southeast 140 161 4,600 -333 Descending Toronto Center
Mon 04:07:46 PM 44.1000 -79.8833 107° East 140 161 4,000 -200 Descending Toronto Center
Mon 04:08:46 PM 44.0833 -79.8333 115° Southeast 130 150 4,000 -150 Level Toronto Center
Mon 04:09:46 PM 44.0667 -79.8000 125° Southeast 130 150 3,700 -400 Descending Toronto Center
Mon 04:10:46 PM 44.0500 -79.7500 115° Southeast 130 150 3,200 -350 Descending Toronto Center
Mon 04:11:46 PM 44.0333 -79.7000 115° Southeast 130 150 3,000  Descending Toronto Center
Mon 04:12:46 PM 44.0333 -79.6500 90° East 120 138 3,200  Climbing Toronto Center
Mon 04:14:46 PM 44.0167 -79.5333 113° Southeast 130 150 3,000 -67 Descending Toronto Center
Mon 04:15:46 PM 44.0000 -79.5000 125° Southeast 130 150 3,000  Level Toronto Center
Mon 04:16:46 PM 43.9833 -79.4500 115° Southeast 130 150 3,000  Level Toronto Center
Mon 04:17:46 PM 43.9833 -79.4000 90° East 130 150 3,000  Level Toronto Center
Mon 04:18:46 PM 43.9667 -79.3500 115° Southeast 130 150 3,000  Level Toronto Center
Mon 04:19:46 PM 43.9500 -79.3167 125° Southeast 130 150 3,000  Level Toronto Center
Mon 04:20:46 PM 43.9333 -79.2833 125° Southeast 130 150 3,000  Level Toronto Center
Mon 04:21:46 PM 43.9167 -79.2333 115° Southeast 130 150 3,000  Level Toronto Center
Mon 04:22:46 PM 43.8833 -79.2333 180° South 120 138 3,000  Level Toronto Center
Mon 04:23:46 PM 43.8500 -79.2333 180° South 120 138 3,000  Level Toronto Center
Mon 04:26:47 PM 43.7500 -79.2167 North 120 138 3,000 -25 Level Toronto Center
Mon 04:27:46 PM 43.7167 -79.2167 180° South 110 127 2,900 -303 Descending Toronto Center
Mon 04:28:46 PM 43.6833 -79.2000 160° South 120 138 2,400 -250 Descending Toronto Center
Mon 04:29:46 PM 43.6500 -79.2167 200° South 120 138 2,400  Level Toronto Center
Mon 04:31:46 PM 43.6167 -79.2833 270° West 130 150 2,400  Level Toronto Center
Mon 04:32:00 PM 43.6167 -79.3833 North  Level FlightAware Approximate
Mon 04:32:46 PM 43.6000 -79.3333 245° Southwest 120 138 2,400  Level Toronto Center
Mon 04:33:46 PM 43.6000 -79.3833 270° West 100 115 1,800 -600 Descending Toronto Center
Mon 04:35:00 PM 43.6275 -79.3961 North  Level Estimated

Login

Don't have an account? Register now (free) for customized features, flight alerts, and more!